sensor_id;sensor_type;location;lat;lon;timestamp;P1;durP1;ratioP1;P2;durP2;ratioP2
25301;SDS011;13243;50.888;4.724;2024-02-28T00:01:52;28.08;;;18.20;;
25301;SDS011;13243;50.888;4.724;2024-02-28T00:06:54;34.22;;;20.58;;
25301;SDS011;13243;50.888;4.724;2024-02-28T00:11:56;27.40;;;18.25;;
25301;SDS011;13243;50.888;4.724;2024-02-28T00:16:58;28.65;;;17.67;;
25301;SDS011;13243;50.888;4.724;2024-02-28T00:22:00;27.67;;;18.63;;
25301;SDS011;13243;50.888;4.724;2024-02-28T00:27:02;30.88;;;18.92;;
25301;SDS011;13243;50.888;4.724;2024-02-28T00:32:04;32.30;;;18.55;;
25301;SDS011;13243;50.888;4.724;2024-02-28T00:37:06;31.33;;;19.70;;
25301;SDS011;13243;50.888;4.724;2024-02-28T00:42:08;28.83;;;18.02;;
25301;SDS011;13243;50.888;4.724;2024-02-28T00:47:10;31.92;;;19.33;;
25301;SDS011;13243;50.888;4.724;2024-02-28T00:52:12;30.65;;;17.85;;
25301;SDS011;13243;50.888;4.724;2024-02-28T00:57:14;33.40;;;20.00;;
25301;SDS011;13243;50.888;4.724;2024-02-28T01:02:16;39.13;;;20.60;;
25301;SDS011;13243;50.888;4.724;2024-02-28T01:07:18;32.88;;;20.88;;
25301;SDS011;13243;50.888;4.724;2024-02-28T01:12:20;35.70;;;21.48;;
25301;SDS011;13243;50.888;4.724;2024-02-28T01:17:22;39.38;;;21.90;;
25301;SDS011;13243;50.888;4.724;2024-02-28T01:22:24;33.55;;;21.30;;
25301;SDS011;13243;50.888;4.724;2024-02-28T01:27:26;41.33;;;23.77;;
25301;SDS011;13243;50.888;4.724;2024-02-28T01:32:28;39.85;;;24.40;;
25301;SDS011;13243;50.888;4.724;2024-02-28T01:37:31;51.00;;;26.33;;
25301;SDS011;13243;50.888;4.724;2024-02-28T01:42:33;45.78;;;25.50;;
25301;SDS011;13243;50.888;4.724;2024-02-28T01:47:35;50.13;;;26.27;;
25301;SDS011;13243;50.888;4.724;2024-02-28T01:52:37;48.63;;;28.13;;
25301;SDS011;13243;50.888;4.724;2024-02-28T01:57:41;54.88;;;30.02;;
25301;SDS011;13243;50.888;4.724;2024-02-28T02:02:43;49.45;;;27.90;;
25301;SDS011;13243;50.888;4.724;2024-02-28T02:07:45;52.00;;;29.33;;
25301;SDS011;13243;50.888;4.724;2024-02-28T02:12:47;43.55;;;26.25;;
25301;SDS011;13243;50.888;4.724;2024-02-28T02:17:49;48.58;;;28.38;;
25301;SDS011;13243;50.888;4.724;2024-02-28T02:22:52;44.53;;;25.95;;
25301;SDS011;13243;50.888;4.724;2024-02-28T02:27:54;46.72;;;25.52;;
25301;SDS011;13243;50.888;4.724;2024-02-28T02:32:56;46.33;;;27.05;;
25301;SDS011;13243;50.888;4.724;2024-02-28T02:37:58;44.05;;;25.10;;
25301;SDS011;13243;50.888;4.724;2024-02-28T02:43:00;42.28;;;24.30;;
25301;SDS011;13243;50.888;4.724;2024-02-28T02:48:02;44.47;;;25.23;;
25301;SDS011;13243;50.888;4.724;2024-02-28T02:53:04;49.67;;;27.27;;
25301;SDS011;13243;50.888;4.724;2024-02-28T02:58:10;47.03;;;26.52;;
25301;SDS011;13243;50.888;4.724;2024-02-28T03:03:12;52.50;;;28.13;;
25301;SDS011;13243;50.888;4.724;2024-02-28T03:08:14;50.17;;;27.65;;
25301;SDS011;13243;50.888;4.724;2024-02-28T03:13:16;49.85;;;27.48;;
25301;SDS011;13243;50.888;4.724;2024-02-28T03:18:18;51.33;;;28.20;;
25301;SDS011;13243;50.888;4.724;2024-02-28T03:23:20;54.65;;;30.00;;
25301;SDS011;13243;50.888;4.724;2024-02-28T03:28:22;50.92;;;29.05;;
25301;SDS011;13243;50.888;4.724;2024-02-28T03:33:24;53.20;;;28.90;;
25301;SDS011;13243;50.888;4.724;2024-02-28T03:38:26;52.65;;;29.88;;
25301;SDS011;13243;50.888;4.724;2024-02-28T03:43:28;49.58;;;27.52;;
25301;SDS011;13243;50.888;4.724;2024-02-28T03:48:30;48.28;;;27.92;;
25301;SDS011;13243;50.888;4.724;2024-02-28T03:53:32;42.80;;;25.45;;
25301;SDS011;13243;50.888;4.724;2024-02-28T03:58:34;46.78;;;26.88;;
25301;SDS011;13243;50.888;4.724;2024-02-28T04:03:36;52.33;;;28.35;;
25301;SDS011;13243;50.888;4.724;2024-02-28T04:08:40;55.05;;;29.58;;
25301;SDS011;13243;50.888;4.724;2024-02-28T04:13:42;54.92;;;28.77;;
25301;SDS011;13243;50.888;4.724;2024-02-28T04:18:44;49.97;;;27.88;;
25301;SDS011;13243;50.888;4.724;2024-02-28T04:23:46;46.05;;;27.25;;
25301;SDS011;13243;50.888;4.724;2024-02-28T04:28:47;52.60;;;27.90;;
25301;SDS011;13243;50.888;4.724;2024-02-28T04:33:49;49.08;;;27.08;;
25301;SDS011;13243;50.888;4.724;2024-02-28T04:38:51;51.08;;;26.65;;
25301;SDS011;13243;50.888;4.724;2024-02-28T04:43:53;53.88;;;30.02;;
25301;SDS011;13243;50.888;4.724;2024-02-28T04:48:55;50.53;;;27.77;;
25301;SDS011;13243;50.888;4.724;2024-02-28T04:53:57;51.25;;;27.98;;
25301;SDS011;13243;50.888;4.724;2024-02-28T04:58:59;46.42;;;27.20;;
25301;SDS011;13243;50.888;4.724;2024-02-28T05:04:01;52.88;;;26.52;;
25301;SDS011;13243;50.888;4.724;2024-02-28T05:09:03;47.80;;;26.70;;
25301;SDS011;13243;50.888;4.724;2024-02-28T05:14:05;47.80;;;26.45;;
25301;SDS011;13243;50.888;4.724;2024-02-28T05:19:07;50.90;;;27.88;;
25301;SDS011;13243;50.888;4.724;2024-02-28T05:24:10;43.17;;;25.88;;
25301;SDS011;13243;50.888;4.724;2024-02-28T05:29:13;49.42;;;25.48;;
25301;SDS011;13243;50.888;4.724;2024-02-28T05:34:15;46.55;;;24.80;;
25301;SDS011;13243;50.888;4.724;2024-02-28T05:39:17;46.05;;;26.77;;
25301;SDS011;13243;50.888;4.724;2024-02-28T05:44:19;46.05;;;26.02;;
25301;SDS011;13243;50.888;4.724;2024-02-28T05:49:21;47.50;;;27.38;;
25301;SDS011;13243;50.888;4.724;2024-02-28T05:54:24;47.80;;;27.67;;
25301;SDS011;13243;50.888;4.724;2024-02-28T05:59:29;48.65;;;28.15;;
25301;SDS011;13243;50.888;4.724;2024-02-28T06:04:31;48.28;;;27.75;;
25301;SDS011;13243;50.888;4.724;2024-02-28T06:09:32;49.10;;;28.08;;
25301;SDS011;13243;50.888;4.724;2024-02-28T06:14:35;50.75;;;27.50;;
25301;SDS011;13243;50.888;4.724;2024-02-28T06:19:36;46.47;;;26.38;;
25301;SDS011;13243;50.888;4.724;2024-02-28T06:24:38;50.53;;;27.70;;
25301;SDS011;13243;50.888;4.724;2024-02-28T06:29:40;50.00;;;27.42;;
25301;SDS011;13243;50.888;4.724;2024-02-28T06:34:42;49.33;;;26.92;;
25301;SDS011;13243;50.888;4.724;2024-02-28T06:39:44;48.67;;;26.27;;
25301;SDS011;13243;50.888;4.724;2024-02-28T06:44:46;49.28;;;26.27;;
25301;SDS011;13243;50.888;4.724;2024-02-28T06:49:48;46.22;;;26.38;;
25301;SDS011;13243;50.888;4.724;2024-02-28T06:54:50;54.63;;;29.27;;
25301;SDS011;13243;50.888;4.724;2024-02-28T06:59:53;51.10;;;29.20;;
25301;SDS011;13243;50.888;4.724;2024-02-28T07:04:54;54.35;;;28.80;;
25301;SDS011;13243;50.888;4.724;2024-02-28T07:09:57;56.22;;;30.08;;
25301;SDS011;13243;50.888;4.724;2024-02-28T07:14:59;51.33;;;28.52;;
25301;SDS011;13243;50.888;4.724;2024-02-28T07:20:01;53.08;;;28.83;;
25301;SDS011;13243;50.888;4.724;2024-02-28T07:25:03;55.55;;;30.00;;
25301;SDS011;13243;50.888;4.724;2024-02-28T07:30:06;59.78;;;29.77;;
25301;SDS011;13243;50.888;4.724;2024-02-28T07:35:08;54.42;;;28.70;;
25301;SDS011;13243;50.888;4.724;2024-02-28T07:40:10;58.33;;;29.90;;
25301;SDS011;13243;50.888;4.724;2024-02-28T07:45:12;53.53;;;30.67;;
25301;SDS011;13243;50.888;4.724;2024-02-28T07:50:14;55.58;;;28.63;;
25301;SDS011;13243;50.888;4.724;2024-02-28T07:55:17;56.60;;;29.20;;
25301;SDS011;13243;50.888;4.724;2024-02-28T08:00:20;54.45;;;29.02;;
25301;SDS011;13243;50.888;4.724;2024-02-28T08:05:23;56.70;;;29.52;;
25301;SDS011;13243;50.888;4.724;2024-02-28T08:10:25;60.30;;;28.90;;
25301;SDS011;13243;50.888;4.724;2024-02-28T08:15:27;55.38;;;29.67;;
25301;SDS011;13243;50.888;4.724;2024-02-28T08:20:29;62.17;;;28.15;;
25301;SDS011;13243;50.888;4.724;2024-02-28T08:25:31;56.97;;;27.55;;
25301;SDS011;13243;50.888;4.724;2024-02-28T08:30:33;53.00;;;25.85;;
25301;SDS011;13243;50.888;4.724;2024-02-28T08:35:35;69.15;;;29.20;;
25301;SDS011;13243;50.888;4.724;2024-02-28T08:40:37;56.58;;;27.70;;
25301;SDS011;13243;50.888;4.724;2024-02-28T08:45:39;59.92;;;27.15;;
25301;SDS011;13243;50.888;4.724;2024-02-28T08:50:41;59.08;;;27.00;;
25301;SDS011;13243;50.888;4.724;2024-02-28T08:55:43;53.80;;;26.48;;
25301;SDS011;13243;50.888;4.724;2024-02-28T09:00:45;58.95;;;27.23;;
25301;SDS011;13243;50.888;4.724;2024-02-28T09:05:47;49.38;;;25.48;;
25301;SDS011;13243;50.888;4.724;2024-02-28T09:10:49;49.83;;;23.60;;
25301;SDS011;13243;50.888;4.724;2024-02-28T09:15:51;50.60;;;24.88;;
25301;SDS011;13243;50.888;4.724;2024-02-28T09:20:55;49.55;;;25.55;;
25301;SDS011;13243;50.888;4.724;2024-02-28T09:25:57;43.85;;;23.40;;
25301;SDS011;13243;50.888;4.724;2024-02-28T09:30:59;50.55;;;25.27;;
25301;SDS011;13243;50.888;4.724;2024-02-28T09:36:04;50.05;;;23.05;;
25301;SDS011;13243;50.888;4.724;2024-02-28T09:41:06;49.08;;;23.85;;
25301;SDS011;13243;50.888;4.724;2024-02-28T09:46:08;47.60;;;22.55;;
25301;SDS011;13243;50.888;4.724;2024-02-28T09:51:14;42.30;;;20.77;;
25301;SDS011;13243;50.888;4.724;2024-02-28T09:56:19;51.17;;;21.83;;
25301;SDS011;13243;50.888;4.724;2024-02-28T10:01:23;43.95;;;20.20;;
25301;SDS011;13243;50.888;4.724;2024-02-28T10:06:27;41.10;;;19.77;;
25301;SDS011;13243;50.888;4.724;2024-02-28T10:11:29;44.92;;;19.98;;
25301;SDS011;13243;50.888;4.724;2024-02-28T10:16:31;51.15;;;20.38;;
25301;SDS011;13243;50.888;4.724;2024-02-28T10:21:33;40.15;;;19.63;;
25301;SDS011;13243;50.888;4.724;2024-02-28T10:26:41;41.30;;;18.08;;
25301;SDS011;13243;50.888;4.724;2024-02-28T10:31:49;34.80;;;17.92;;
25301;SDS011;13243;50.888;4.724;2024-02-28T10:36:52;38.92;;;18.52;;
25301;SDS011;13243;50.888;4.724;2024-02-28T10:41:54;37.03;;;16.60;;
25301;SDS011;13243;50.888;4.724;2024-02-28T10:46:58;35.20;;;17.85;;
25301;SDS011;13243;50.888;4.724;2024-02-28T10:52:01;41.30;;;16.55;;
25301;SDS011;13243;50.888;4.724;2024-02-28T10:57:07;32.42;;;15.75;;
25301;SDS011;13243;50.888;4.724;2024-02-28T11:02:10;25.25;;;14.32;;
25301;SDS011;13243;50.888;4.724;2024-02-28T11:07:18;24.27;;;13.25;;
25301;SDS011;13243;50.888;4.724;2024-02-28T11:12:25;24.80;;;14.20;;
25301;SDS011;13243;50.888;4.724;2024-02-28T11:17:29;26.35;;;13.23;;
25301;SDS011;13243;50.888;4.724;2024-02-28T11:22:32;27.45;;;13.48;;
25301;SDS011;13243;50.888;4.724;2024-02-28T11:27:45;23.98;;;12.75;;
25301;SDS011;13243;50.888;4.724;2024-02-28T11:32:48;25.98;;;12.98;;
25301;SDS011;13243;50.888;4.724;2024-02-28T11:37:54;23.90;;;12.02;;
25301;SDS011;13243;50.888;4.724;2024-02-28T11:42:59;25.80;;;13.20;;
25301;SDS011;13243;50.888;4.724;2024-02-28T11:48:05;23.52;;;14.25;;
25301;SDS011;13243;50.888;4.724;2024-02-28T11:53:08;27.98;;;14.40;;
25301;SDS011;13243;50.888;4.724;2024-02-28T11:58:10;28.65;;;14.00;;
25301;SDS011;13243;50.888;4.724;2024-02-28T12:03:12;23.80;;;14.35;;
25301;SDS011;13243;50.888;4.724;2024-02-28T12:08:13;24.83;;;15.10;;
25301;SDS011;13243;50.888;4.724;2024-02-28T12:13:19;24.42;;;14.10;;
25301;SDS011;13243;50.888;4.724;2024-02-28T12:18:21;25.25;;;14.55;;
25301;SDS011;13243;50.888;4.724;2024-02-28T12:23:23;23.85;;;13.82;;
25301;SDS011;13243;50.888;4.724;2024-02-28T12:28:25;24.80;;;14.23;;
25301;SDS011;13243;50.888;4.724;2024-02-28T12:33:27;30.40;;;14.63;;
25301;SDS011;13243;50.888;4.724;2024-02-28T12:38:29;26.50;;;15.40;;
25301;SDS011;13243;50.888;4.724;2024-02-28T12:43:32;23.45;;;14.60;;
25301;SDS011;13243;50.888;4.724;2024-02-28T12:48:37;23.52;;;14.00;;
25301;SDS011;13243;50.888;4.724;2024-02-28T12:53:40;25.52;;;13.02;;
25301;SDS011;13243;50.888;4.724;2024-02-28T12:58:42;20.25;;;12.65;;
25301;SDS011;13243;50.888;4.724;2024-02-28T13:03:45;18.83;;;12.23;;
25301;SDS011;13243;50.888;4.724;2024-02-28T13:08:46;17.23;;;11.25;;
25301;SDS011;13243;50.888;4.724;2024-02-28T13:13:53;21.70;;;11.75;;
25301;SDS011;13243;50.888;4.724;2024-02-28T13:18:55;20.13;;;12.00;;
25301;SDS011;13243;50.888;4.724;2024-02-28T13:23:57;16.35;;;10.77;;
25301;SDS011;13243;50.888;4.724;2024-02-28T13:28:59;23.10;;;11.88;;
25301;SDS011;13243;50.888;4.724;2024-02-28T13:34:01;19.33;;;10.45;;
25301;SDS011;13243;50.888;4.724;2024-02-28T13:39:04;16.95;;;10.23;;
25301;SDS011;13243;50.888;4.724;2024-02-28T13:44:07;14.27;;;9.27;;
25301;SDS011;13243;50.888;4.724;2024-02-28T13:49:10;15.60;;;8.23;;
25301;SDS011;13243;50.888;4.724;2024-02-28T13:54:13;14.05;;;6.53;;
25301;SDS011;13243;50.888;4.724;2024-02-28T13:59:15;9.98;;;5.40;;
25301;SDS011;13243;50.888;4.724;2024-02-28T14:04:17;13.98;;;5.97;;
25301;SDS011;13243;50.888;4.724;2024-02-28T14:09:20;9.27;;;5.13;;
25301;SDS011;13243;50.888;4.724;2024-02-28T14:14:22;12.82;;;4.70;;
25301;SDS011;13243;50.888;4.724;2024-02-28T14:19:24;9.43;;;4.28;;
25301;SDS011;13243;50.888;4.724;2024-02-28T14:24:26;9.15;;;4.47;;
25301;SDS011;13243;50.888;4.724;2024-02-28T14:29:28;9.65;;;4.28;;
25301;SDS011;13243;50.888;4.724;2024-02-28T14:34:30;6.85;;;3.63;;
25301;SDS011;13243;50.888;4.724;2024-02-28T14:39:32;6.35;;;4.07;;
25301;SDS011;13243;50.888;4.724;2024-02-28T14:44:35;6.85;;;4.65;;
25301;SDS011;13243;50.888;4.724;2024-02-28T14:49:37;7.07;;;4.70;;
25301;SDS011;13243;50.888;4.724;2024-02-28T14:54:41;10.90;;;4.30;;
25301;SDS011;13243;50.888;4.724;2024-02-28T14:59:43;10.40;;;5.30;;
25301;SDS011;13243;50.888;4.724;2024-02-28T15:04:45;7.63;;;3.83;;
25301;SDS011;13243;50.888;4.724;2024-02-28T15:09:47;5.22;;;3.47;;
25301;SDS011;13243;50.888;4.724;2024-02-28T15:14:49;7.47;;;3.65;;
25301;SDS011;13243;50.888;4.724;2024-02-28T15:19:51;6.95;;;3.47;;
25301;SDS011;13243;50.888;4.724;2024-02-28T15:24:53;4.28;;;3.10;;
25301;SDS011;13243;50.888;4.724;2024-02-28T15:29:54;5.85;;;3.22;;
25301;SDS011;13243;50.888;4.724;2024-02-28T15:34:56;6.80;;;3.80;;
25301;SDS011;13243;50.888;4.724;2024-02-28T15:39:58;7.43;;;3.40;;
25301;SDS011;13243;50.888;4.724;2024-02-28T15:45:00;3.65;;;2.80;;
25301;SDS011;13243;50.888;4.724;2024-02-28T15:50:03;4.03;;;3.08;;
25301;SDS011;13243;50.888;4.724;2024-02-28T15:55:10;7.18;;;3.17;;
25301;SDS011;13243;50.888;4.724;2024-02-28T16:00:13;5.82;;;3.38;;
25301;SDS011;13243;50.888;4.724;2024-02-28T16:05:16;8.98;;;2.97;;
25301;SDS011;13243;50.888;4.724;2024-02-28T16:10:18;4.78;;;3.05;;
25301;SDS011;13243;50.888;4.724;2024-02-28T16:15:19;9.13;;;3.45;;
25301;SDS011;13243;50.888;4.724;2024-02-28T16:20:22;6.68;;;3.13;;
25301;SDS011;13243;50.888;4.724;2024-02-28T16:25:25;4.22;;;3.20;;
25301;SDS011;13243;50.888;4.724;2024-02-28T16:30:30;6.65;;;3.30;;
25301;SDS011;13243;50.888;4.724;2024-02-28T16:35:32;6.63;;;3.90;;
25301;SDS011;13243;50.888;4.724;2024-02-28T16:40:34;4.95;;;3.33;;
25301;SDS011;13243;50.888;4.724;2024-02-28T16:45:36;10.98;;;3.78;;
25301;SDS011;13243;50.888;4.724;2024-02-28T16:50:41;10.07;;;5.20;;
25301;SDS011;13243;50.888;4.724;2024-02-28T16:55:43;9.70;;;5.85;;
25301;SDS011;13243;50.888;4.724;2024-02-28T17:00:44;13.65;;;6.47;;
25301;SDS011;13243;50.888;4.724;2024-02-28T17:05:48;7.90;;;5.60;;
25301;SDS011;13243;50.888;4.724;2024-02-28T17:10:50;11.73;;;6.55;;
25301;SDS011;13243;50.888;4.724;2024-02-28T17:15:52;11.25;;;6.10;;
25301;SDS011;13243;50.888;4.724;2024-02-28T17:21:03;11.55;;;6.63;;
25301;SDS011;13243;50.888;4.724;2024-02-28T17:26:05;13.57;;;7.32;;
25301;SDS011;13243;50.888;4.724;2024-02-28T17:31:08;10.82;;;7.13;;
25301;SDS011;13243;50.888;4.724;2024-02-28T17:36:10;16.83;;;7.82;;
25301;SDS011;13243;50.888;4.724;2024-02-28T17:41:12;11.15;;;7.20;;
25301;SDS011;13243;50.888;4.724;2024-02-28T17:46:15;13.80;;;7.75;;
25301;SDS011;13243;50.888;4.724;2024-02-28T17:51:17;13.13;;;7.50;;
25301;SDS011;13243;50.888;4.724;2024-02-28T17:56:18;12.95;;;7.05;;
25301;SDS011;13243;50.888;4.724;2024-02-28T18:01:20;15.55;;;7.10;;
25301;SDS011;13243;50.888;4.724;2024-02-28T18:06:23;12.90;;;6.63;;
25301;SDS011;13243;50.888;4.724;2024-02-28T18:11:26;10.15;;;6.55;;
25301;SDS011;13243;50.888;4.724;2024-02-28T18:16:28;10.10;;;5.93;;
25301;SDS011;13243;50.888;4.724;2024-02-28T18:21:30;17.77;;;6.47;;
25301;SDS011;13243;50.888;4.724;2024-02-28T18:26:36;11.00;;;5.93;;
25301;SDS011;13243;50.888;4.724;2024-02-28T18:31:38;10.50;;;5.82;;
25301;SDS011;13243;50.888;4.724;2024-02-28T18:36:40;13.57;;;7.28;;
25301;SDS011;13243;50.888;4.724;2024-02-28T18:41:42;11.90;;;7.18;;
25301;SDS011;13243;50.888;4.724;2024-02-28T18:46:43;13.32;;;7.85;;
25301;SDS011;13243;50.888;4.724;2024-02-28T18:51:45;14.00;;;8.90;;
25301;SDS011;13243;50.888;4.724;2024-02-28T18:56:47;16.88;;;8.90;;
25301;SDS011;13243;50.888;4.724;2024-02-28T19:01:49;16.15;;;8.95;;
25301;SDS011;13243;50.888;4.724;2024-02-28T19:06:51;21.75;;;9.07;;
25301;SDS011;13243;50.888;4.724;2024-02-28T19:11:53;24.55;;;8.90;;
25301;SDS011;13243;50.888;4.724;2024-02-28T19:16:56;19.17;;;9.98;;
25301;SDS011;13243;50.888;4.724;2024-02-28T19:21:58;19.33;;;9.63;;
25301;SDS011;13243;50.888;4.724;2024-02-28T19:27:00;19.15;;;10.15;;
25301;SDS011;13243;50.888;4.724;2024-02-28T19:32:01;16.98;;;9.93;;
25301;SDS011;13243;50.888;4.724;2024-02-28T19:37:03;18.48;;;10.40;;
25301;SDS011;13243;50.888;4.724;2024-02-28T19:42:06;18.55;;;10.75;;
25301;SDS011;13243;50.888;4.724;2024-02-28T19:47:08;22.40;;;10.77;;
25301;SDS011;13243;50.888;4.724;2024-02-28T19:52:09;21.75;;;11.15;;
25301;SDS011;13243;50.888;4.724;2024-02-28T19:57:11;18.88;;;11.55;;
25301;SDS011;13243;50.888;4.724;2024-02-28T20:02:13;20.33;;;10.70;;
25301;SDS011;13243;50.888;4.724;2024-02-28T20:07:15;22.92;;;11.55;;
25301;SDS011;13243;50.888;4.724;2024-02-28T20:12:17;17.30;;;10.30;;
25301;SDS011;13243;50.888;4.724;2024-02-28T20:17:19;18.80;;;10.95;;
25301;SDS011;13243;50.888;4.724;2024-02-28T20:22:21;20.10;;;10.75;;
25301;SDS011;13243;50.888;4.724;2024-02-28T20:27:23;23.13;;;11.15;;
25301;SDS011;13243;50.888;4.724;2024-02-28T20:32:25;18.35;;;11.18;;
25301;SDS011;13243;50.888;4.724;2024-02-28T20:37:28;20.38;;;10.48;;
25301;SDS011;13243;50.888;4.724;2024-02-28T20:42:30;22.35;;;10.70;;
25301;SDS011;13243;50.888;4.724;2024-02-28T20:47:33;17.42;;;10.10;;
25301;SDS011;13243;50.888;4.724;2024-02-28T20:52:35;14.95;;;9.15;;
25301;SDS011;13243;50.888;4.724;2024-02-28T20:57:37;20.70;;;10.10;;
25301;SDS011;13243;50.888;4.724;2024-02-28T21:02:40;22.45;;;10.50;;
25301;SDS011;13243;50.888;4.724;2024-02-28T21:07:42;22.30;;;9.88;;
25301;SDS011;13243;50.888;4.724;2024-02-28T21:12:53;22.35;;;11.27;;
25301;SDS011;13243;50.888;4.724;2024-02-28T21:17:56;25.20;;;11.20;;
25301;SDS011;13243;50.888;4.724;2024-02-28T21:22:58;20.42;;;11.02;;
25301;SDS011;13243;50.888;4.724;2024-02-28T21:28:00;20.45;;;11.35;;
25301;SDS011;13243;50.888;4.724;2024-02-28T21:33:02;25.98;;;11.93;;
25301;SDS011;13243;50.888;4.724;2024-02-28T21:38:05;19.60;;;11.50;;
25301;SDS011;13243;50.888;4.724;2024-02-28T21:43:07;28.00;;;11.90;;
25301;SDS011;13243;50.888;4.724;2024-02-28T21:48:09;23.33;;;13.30;;
25301;SDS011;13243;50.888;4.724;2024-02-28T21:53:14;32.45;;;14.25;;
25301;SDS011;13243;50.888;4.724;2024-02-28T21:58:16;29.85;;;14.00;;
25301;SDS011;13243;50.888;4.724;2024-02-28T22:03:18;28.67;;;14.50;;
25301;SDS011;13243;50.888;4.724;2024-02-28T22:08:20;29.25;;;14.57;;
25301;SDS011;13243;50.888;4.724;2024-02-28T22:13:22;23.55;;;13.30;;
25301;SDS011;13243;50.888;4.724;2024-02-28T22:18:25;24.83;;;14.32;;
25301;SDS011;13243;50.888;4.724;2024-02-28T22:23:27;24.00;;;14.13;;
25301;SDS011;13243;50.888;4.724;2024-02-28T22:28:31;25.05;;;15.00;;
25301;SDS011;13243;50.888;4.724;2024-02-28T22:33:35;28.83;;;15.82;;
25301;SDS011;13243;50.888;4.724;2024-02-28T22:38:37;25.75;;;14.57;;
25301;SDS011;13243;50.888;4.724;2024-02-28T22:43:39;28.50;;;16.08;;
25301;SDS011;13243;50.888;4.724;2024-02-28T22:48:41;31.13;;;15.15;;
25301;SDS011;13243;50.888;4.724;2024-02-28T22:53:43;31.73;;;15.35;;
25301;SDS011;13243;50.888;4.724;2024-02-28T22:58:47;34.65;;;16.13;;
25301;SDS011;13243;50.888;4.724;2024-02-28T23:03:49;32.38;;;17.02;;
25301;SDS011;13243;50.888;4.724;2024-02-28T23:08:51;29.25;;;16.52;;
25301;SDS011;13243;50.888;4.724;2024-02-28T23:13:53;32.35;;;16.95;;
25301;SDS011;13243;50.888;4.724;2024-02-28T23:18:55;33.53;;;18.08;;
25301;SDS011;13243;50.888;4.724;2024-02-28T23:23:57;32.50;;;16.73;;
25301;SDS011;13243;50.888;4.724;2024-02-28T23:28:59;30.35;;;16.77;;
25301;SDS011;13243;50.888;4.724;2024-02-28T23:34:01;36.67;;;17.63;;
25301;SDS011;13243;50.888;4.724;2024-02-28T23:39:03;32.85;;;16.33;;
25301;SDS011;13243;50.888;4.724;2024-02-28T23:44:05;32.85;;;16.55;;
25301;SDS011;13243;50.888;4.724;2024-02-28T23:49:07;34.90;;;17.90;;
25301;SDS011;13243;50.888;4.724;2024-02-28T23:54:08;37.60;;;17.17;;
25301;SDS011;13243;50.888;4.724;2024-02-28T23:59:11;33.63;;;16.98;;
